createdAt,value
2022-12-04T00:00:17.234Z,18.10
2022-12-04T00:02:50.165Z,16.03
2022-12-04T00:05:18.795Z,17.27
2022-12-04T00:07:48.116Z,18.50
2022-12-04T00:10:17.998Z,17.50
2022-12-04T00:12:45.910Z,18.93
2022-12-04T00:15:25.278Z,19.40
2022-12-04T00:17:54.130Z,18.20
2022-12-04T00:20:23.533Z,18.57
2022-12-04T00:22:51.569Z,18.30
2022-12-04T00:25:19.147Z,18.80
2022-12-04T00:27:46.724Z,18.73
2022-12-04T00:30:15.209Z,18.43
2022-12-04T00:32:43.508Z,20.07
2022-12-04T00:35:11.188Z,19.30
2022-12-04T00:37:38.955Z,18.47
2022-12-04T00:40:07.590Z,18.23
2022-12-04T00:42:35.194Z,19.10
2022-12-04T00:45:03.456Z,21.90
2022-12-04T00:47:33.003Z,18.77
2022-12-04T00:50:03.317Z,20.27
2022-12-04T00:52:31.506Z,18.00
2022-12-04T00:54:59.540Z,18.47
2022-12-04T00:57:33.656Z,17.30
2022-12-04T01:00:01.315Z,19.30
2022-12-04T01:02:31.972Z,18.57
2022-12-04T01:05:01.801Z,18.13
2022-12-04T01:07:31.102Z,19.47
2022-12-04T01:09:58.956Z,19.13
2022-12-04T01:12:27.027Z,18.87
2022-12-04T01:14:54.710Z,17.60
2022-12-04T01:17:22.322Z,17.47
2022-12-04T01:19:50.050Z,18.50
2022-12-04T01:22:18.064Z,18.57
2022-12-04T01:24:46.735Z,17.90
2022-12-04T01:27:14.426Z,16.77
2022-12-04T01:29:41.857Z,19.00
2022-12-04T01:32:10.597Z,17.40
2022-12-04T01:34:38.244Z,16.37
2022-12-04T01:37:06.011Z,17.10
2022-12-04T01:39:36.802Z,16.87
2022-12-04T01:42:04.664Z,16.50
2022-12-04T01:44:32.792Z,17.43
2022-12-04T01:47:01.484Z,16.63
2022-12-04T01:49:40.068Z,17.37
2022-12-04T01:52:13.884Z,16.70
2022-12-04T01:54:45.324Z,16.77
2022-12-04T01:57:20.290Z,18.63
2022-12-04T01:59:54.704Z,18.03
2022-12-04T02:02:38.587Z,16.20
2022-12-04T02:05:12.105Z,16.77
2022-12-04T02:07:41.461Z,18.23
2022-12-04T02:10:12.009Z,16.53
2022-12-04T02:12:50.574Z,17.13
2022-12-04T02:15:23.589Z,17.07
2022-12-04T02:18:07.060Z,17.70
2022-12-04T02:20:49.058Z,17.10
2022-12-04T02:23:36.993Z,20.07
2022-12-04T02:26:48.137Z,17.37
2022-12-04T02:29:34.685Z,19.77
2022-12-04T02:32:30.734Z,17.00
2022-12-04T02:35:09.074Z,16.60
2022-12-04T02:37:43.218Z,16.67
2022-12-04T02:40:19.935Z,17.70
2022-12-04T02:42:58.427Z,18.63
2022-12-04T02:45:41.968Z,18.70
2022-12-04T02:48:12.494Z,17.43
2022-12-04T02:50:41.273Z,17.23
2022-12-04T02:53:16.687Z,17.87
2022-12-04T02:55:48.037Z,17.27
2022-12-04T02:58:38.584Z,16.80
2022-12-04T03:01:24.952Z,16.80
2022-12-04T03:04:00.535Z,17.07
2022-12-04T03:06:34.351Z,16.67
2022-12-04T03:09:09.538Z,17.57
2022-12-04T03:11:46.023Z,16.23
2022-12-04T03:14:22.560Z,18.03
2022-12-04T03:16:58.154Z,16.67
2022-12-04T03:19:36.325Z,16.90
2022-12-04T03:22:10.727Z,17.13
2022-12-04T03:24:48.865Z,16.83
2022-12-04T03:27:19.603Z,16.43
2022-12-04T03:29:53.331Z,18.13
2022-12-04T03:33:07.271Z,16.57
2022-12-04T03:35:59.054Z,16.27
2022-12-04T03:38:44.440Z,17.00
2022-12-04T03:41:49.925Z,17.43
2022-12-04T03:44:41.487Z,17.13
2022-12-04T03:47:20.343Z,17.10
2022-12-04T03:50:00.478Z,16.40
2022-12-04T03:52:54.113Z,16.87
2022-12-04T03:55:39.359Z,18.27
2022-12-04T03:58:13.025Z,17.57
2022-12-04T04:00:43.438Z,17.23
2022-12-04T04:03:24.018Z,16.43
2022-12-04T04:05:56.324Z,17.20
2022-12-04T04:08:34.177Z,16.93
2022-12-04T04:11:24.089Z,17.13
2022-12-04T04:14:21.167Z,17.33
2022-12-04T04:17:16.252Z,15.93
2022-12-04T04:20:08.332Z,17.27
2022-12-04T04:22:58.263Z,15.87
2022-12-04T04:25:28.168Z,18.73
2022-12-04T04:27:58.069Z,16.43
2022-12-04T04:30:27.584Z,16.93
2022-12-04T04:32:59.956Z,18.37
2022-12-04T04:35:51.435Z,17.17
2022-12-04T04:38:41.837Z,17.07
2022-12-04T04:41:29.373Z,16.23
2022-12-04T04:44:11.604Z,16.07
2022-12-04T04:46:45.883Z,17.57
2022-12-04T04:49:16.495Z,16.27
2022-12-04T04:51:45.488Z,16.43
2022-12-04T04:54:16.632Z,17.13
2022-12-04T04:56:46.006Z,16.23
2022-12-04T04:59:14.153Z,17.33
2022-12-04T05:01:44.516Z,18.97
2022-12-04T05:04:12.123Z,16.43
2022-12-04T05:06:40.051Z,16.33
2022-12-04T05:09:07.477Z,16.03
2022-12-04T05:11:35.032Z,16.43
2022-12-04T05:14:02.425Z,17.83
2022-12-04T05:16:30.411Z,16.47
2022-12-04T05:19:17.519Z,16.13
2022-12-04T05:21:45.093Z,15.50
2022-12-04T05:24:12.797Z,15.87
2022-12-04T05:26:40.697Z,16.60
2022-12-04T05:29:08.192Z,17.27
2022-12-04T05:31:35.924Z,15.80
2022-12-04T05:34:03.552Z,16.07
2022-12-04T05:36:31.045Z,17.00
2022-12-04T05:38:58.658Z,17.03
2022-12-04T05:41:26.030Z,15.97
2022-12-04T05:43:53.594Z,15.50
2022-12-04T05:46:21.330Z,15.43
2022-12-04T05:48:48.981Z,16.20
2022-12-04T05:51:16.493Z,15.53
2022-12-04T05:53:44.175Z,16.37
2022-12-04T05:56:11.853Z,15.57
2022-12-04T05:58:39.331Z,16.77
2022-12-04T06:01:21.974Z,13.87
2022-12-04T06:03:50.418Z,15.43
2022-12-04T06:06:22.215Z,16.20
2022-12-04T06:08:51.744Z,14.47
2022-12-04T06:11:25.104Z,16.63
2022-12-04T06:13:53.150Z,16.27
2022-12-04T06:16:23.882Z,15.17
2022-12-04T06:18:57.842Z,15.77
2022-12-04T06:21:32.337Z,16.30
2022-12-04T06:23:59.853Z,15.77
2022-12-04T06:26:27.641Z,15.67
2022-12-04T06:28:56.901Z,15.23
2022-12-04T06:31:26.971Z,16.30
2022-12-04T06:34:00.146Z,15.80
2022-12-04T06:36:27.967Z,15.43
2022-12-04T06:38:57.000Z,16.40
2022-12-04T06:41:26.763Z,16.13
2022-12-04T06:43:54.909Z,15.80
2022-12-04T06:46:25.641Z,14.10
2022-12-04T06:48:55.783Z,14.83
2022-12-04T06:51:27.721Z,15.80
2022-12-04T06:53:56.216Z,15.10
2022-12-04T06:56:29.711Z,15.13
2022-12-04T06:59:00.693Z,16.27
2022-12-04T07:01:31.439Z,15.60
2022-12-04T07:03:59.524Z,15.87
2022-12-04T07:06:29.737Z,15.27
2022-12-04T07:09:17.546Z,15.37
2022-12-04T07:11:45.311Z,14.87
2022-12-04T07:14:13.688Z,15.27
2022-12-04T07:16:42.321Z,15.03
2022-12-04T07:19:11.529Z,14.50
2022-12-04T07:21:39.200Z,15.83
2022-12-04T07:24:07.154Z,15.80
2022-12-04T07:26:34.513Z,15.77
2022-12-04T07:29:01.879Z,16.37
2022-12-04T07:31:30.179Z,14.60
2022-12-04T07:33:58.778Z,15.37
2022-12-04T07:36:27.600Z,14.60
2022-12-04T07:38:55.988Z,15.00
2022-12-04T07:41:23.816Z,15.00
2022-12-04T07:43:51.419Z,15.00
2022-12-04T07:46:24.467Z,14.43
2022-12-04T07:48:52.457Z,14.50
2022-12-04T07:51:22.151Z,14.20
2022-12-04T07:53:51.552Z,15.87
2022-12-04T07:56:19.539Z,14.70
2022-12-04T07:58:47.360Z,14.40
2022-12-04T08:01:17.814Z,14.60
2022-12-04T08:03:48.596Z,14.80
2022-12-04T08:06:21.917Z,15.23
2022-12-04T08:08:50.093Z,14.60
2022-12-04T08:11:22.117Z,15.10
2022-12-04T08:13:55.354Z,13.90
2022-12-04T08:16:23.473Z,15.43
2022-12-04T08:18:51.550Z,14.53
2022-12-04T08:21:21.849Z,15.50
2022-12-04T08:23:53.936Z,13.93
2022-12-04T08:26:23.060Z,14.63
2022-12-04T08:28:53.326Z,16.33
2022-12-04T08:31:27.041Z,15.07
2022-12-04T08:33:57.742Z,15.50
2022-12-04T08:36:26.034Z,15.67
2022-12-04T08:38:53.479Z,16.13
2022-12-04T08:41:24.080Z,16.27
2022-12-04T08:43:56.139Z,17.23
2022-12-04T08:46:25.063Z,15.37
2022-12-04T08:48:53.497Z,15.90
2022-12-04T08:51:23.859Z,16.20
2022-12-04T08:53:56.381Z,18.03
2022-12-04T08:56:25.351Z,17.27
2022-12-04T08:58:53.240Z,17.57
2022-12-04T09:01:21.711Z,17.27
2022-12-04T09:03:49.452Z,15.37
2022-12-04T09:06:17.859Z,17.20
2022-12-04T09:08:45.293Z,17.23
2022-12-04T09:11:15.528Z,17.37
2022-12-04T09:13:43.942Z,20.03
2022-12-04T09:16:14.102Z,19.00
2022-12-04T09:18:42.113Z,16.57
2022-12-04T09:21:11.876Z,17.27
2022-12-04T09:23:41.320Z,17.27
2022-12-04T09:26:23.960Z,18.67
2022-12-04T09:28:52.402Z,18.83
2022-12-04T09:31:20.465Z,18.17
2022-12-04T09:33:53.773Z,16.92
2022-12-04T09:36:21.760Z,20.07
2022-12-04T09:38:51.160Z,20.23
2022-12-04T09:41:24.269Z,18.17
2022-12-04T09:44:06.208Z,19.83
2022-12-04T09:47:15.127Z,19.10
2022-12-04T09:49:56.744Z,18.07
2022-12-04T09:52:49.679Z,19.07
2022-12-04T09:55:28.092Z,19.03
2022-12-04T09:58:02.055Z,19.13
2022-12-04T10:00:41.903Z,20.07
2022-12-04T10:03:16.550Z,18.60
2022-12-04T10:06:14.767Z,19.53
2022-12-04T10:08:45.663Z,18.47
2022-12-04T10:11:44.435Z,18.97
2022-12-04T10:14:39.485Z,20.10
2022-12-04T10:17:32.617Z,19.53
2022-12-04T10:20:00.286Z,18.93
2022-12-04T10:22:58.744Z,20.03
2022-12-04T10:25:34.459Z,19.87
2022-12-04T10:28:33.868Z,22.00
2022-12-04T10:31:14.751Z,18.80
2022-12-04T10:33:56.038Z,18.50
2022-12-04T10:36:27.000Z,19.90
2022-12-04T10:39:06.258Z,20.27
2022-12-04T10:41:54.646Z,19.27
2022-12-04T10:44:22.463Z,20.07
2022-12-04T10:46:53.340Z,19.30
2022-12-04T10:49:32.645Z,18.97
2022-12-04T10:52:00.490Z,20.17
2022-12-04T10:54:48.410Z,18.87
2022-12-04T10:57:16.395Z,18.27
2022-12-04T10:59:54.776Z,18.83
2022-12-04T11:02:23.779Z,18.87
2022-12-04T11:04:58.450Z,20.77
2022-12-04T11:07:51.393Z,18.47
2022-12-04T11:10:29.425Z,19.97
2022-12-04T11:13:00.369Z,19.60
2022-12-04T11:15:28.187Z,18.23
2022-12-04T11:17:55.527Z,18.63
2022-12-04T11:20:26.146Z,18.40
2022-12-04T11:22:59.253Z,17.63
2022-12-04T11:25:44.684Z,18.17
2022-12-04T11:28:39.881Z,18.47
2022-12-04T11:31:08.044Z,18.00
2022-12-04T11:33:52.212Z,17.57
2022-12-04T11:36:34.208Z,18.53
2022-12-04T11:39:15.633Z,18.27
2022-12-04T11:41:43.091Z,19.30
2022-12-04T11:44:27.231Z,17.83
2022-12-04T11:46:59.230Z,17.57
2022-12-04T11:49:27.476Z,19.07
2022-12-04T11:52:13.734Z,18.17
2022-12-04T11:55:02.073Z,18.43
2022-12-04T11:57:47.672Z,18.20
2022-12-04T12:00:20.816Z,17.57
2022-12-04T12:03:00.289Z,17.53
2022-12-04T12:06:01.675Z,17.73
2022-12-04T12:08:59.818Z,17.40
2022-12-04T12:11:38.575Z,17.20
2022-12-04T12:14:33.020Z,16.57
2022-12-04T12:17:27.167Z,17.43
2022-12-04T12:20:15.422Z,16.70
2022-12-04T12:22:52.386Z,16.67
2022-12-04T12:25:24.151Z,16.47
2022-12-04T12:28:13.071Z,17.33
2022-12-04T12:31:05.425Z,16.97
2022-12-04T12:33:42.184Z,17.20
2022-12-04T12:36:11.920Z,15.70
2022-12-04T12:38:55.371Z,15.53
2022-12-04T12:41:32.171Z,15.90
2022-12-04T12:44:11.440Z,17.17
2022-12-04T12:46:55.013Z,16.63
2022-12-04T12:49:41.859Z,16.00
2022-12-04T12:52:34.562Z,16.37
2022-12-04T12:55:14.788Z,16.33
2022-12-04T12:57:46.465Z,15.90
2022-12-04T13:00:21.514Z,15.77
2022-12-04T13:02:55.885Z,15.03
2022-12-04T13:05:33.532Z,16.83
2022-12-04T13:08:24.265Z,16.57
2022-12-04T13:11:15.775Z,15.73
2022-12-04T13:13:48.665Z,16.40
2022-12-04T13:16:25.171Z,17.43
2022-12-04T13:18:55.524Z,17.50
2022-12-04T13:21:35.223Z,17.23
2022-12-04T13:24:31.348Z,16.67
2022-12-04T13:27:31.629Z,18.03
2022-12-04T13:30:05.667Z,16.43
2022-12-04T13:33:11.960Z,17.43
2022-12-04T13:36:02.517Z,16.73
2022-12-04T13:38:58.054Z,16.53
2022-12-04T13:41:26.999Z,18.03
2022-12-04T13:43:55.855Z,17.73
2022-12-04T13:46:36.352Z,18.87
2022-12-04T13:49:22.340Z,23.70
2022-12-04T13:51:49.784Z,17.60
2022-12-04T13:54:17.203Z,18.20
2022-12-04T13:56:47.819Z,16.90
2022-12-04T13:59:27.908Z,18.37
2022-12-04T14:02:02.264Z,18.90
2022-12-04T14:04:41.961Z,17.60
2022-12-04T14:07:25.631Z,19.37
2022-12-04T14:09:55.011Z,18.27
2022-12-04T14:12:36.217Z,18.30
2022-12-04T14:15:18.479Z,18.30
2022-12-04T14:17:57.261Z,18.73
2022-12-04T14:20:27.475Z,17.63
2022-12-04T14:22:55.557Z,18.53
2022-12-04T14:25:33.436Z,18.13
2022-12-04T14:28:13.536Z,19.27
2022-12-04T14:30:42.270Z,18.73
2022-12-04T14:33:18.249Z,18.90
2022-12-04T14:35:58.165Z,18.13
2022-12-04T14:38:26.133Z,19.90
2022-12-04T14:40:57.898Z,19.77
2022-12-04T14:43:44.808Z,19.10
2022-12-04T14:46:44.046Z,19.57
2022-12-04T14:49:18.354Z,17.43
2022-12-04T14:52:07.276Z,18.90
2022-12-04T14:55:06.502Z,18.40
2022-12-04T14:58:00.058Z,18.00
2022-12-04T15:00:28.292Z,17.47
2022-12-04T15:02:59.379Z,20.47
2022-12-04T15:05:31.677Z,20.23
2022-12-04T15:08:05.283Z,20.50
2022-12-04T15:10:53.572Z,19.10
2022-12-04T15:13:32.559Z,18.40
2022-12-04T15:16:29.087Z,17.00
2022-12-04T15:18:58.637Z,17.47
2022-12-04T15:21:38.382Z,17.57
2022-12-04T15:24:24.187Z,18.73
2022-12-04T15:26:53.622Z,17.77
2022-12-04T15:29:25.943Z,18.47
2022-12-04T15:31:57.699Z,18.50
2022-12-04T15:34:37.317Z,18.87
2022-12-04T15:37:08.500Z,18.97
2022-12-04T15:39:37.923Z,18.83
2022-12-04T15:42:24.287Z,20.17
2022-12-04T15:44:54.982Z,19.53
2022-12-04T15:47:25.405Z,19.50
2022-12-04T15:49:52.826Z,19.07
2022-12-04T15:52:22.965Z,19.43
2022-12-04T15:54:56.528Z,18.40
2022-12-04T15:57:29.521Z,21.37
2022-12-04T16:00:01.184Z,25.17
2022-12-04T16:02:35.254Z,20.03
2022-12-04T16:05:13.400Z,17.73
2022-12-04T16:08:13.988Z,19.07
2022-12-04T16:10:41.259Z,18.37
2022-12-04T16:13:36.696Z,20.47
2022-12-04T16:16:21.926Z,18.40
2022-12-04T16:18:49.404Z,16.73
2022-12-04T16:21:19.070Z,18.67
2022-12-04T16:23:48.616Z,19.67
2022-12-04T16:26:20.336Z,18.77
2022-12-04T16:28:47.628Z,19.53
2022-12-04T16:31:17.907Z,18.17
2022-12-04T16:33:45.234Z,19.17
2022-12-04T16:36:12.496Z,18.20
2022-12-04T16:38:39.973Z,19.43
2022-12-04T16:41:14.032Z,19.53
2022-12-04T16:43:41.951Z,20.90
2022-12-04T16:46:14.306Z,20.50
2022-12-04T16:48:44.749Z,19.77
2022-12-04T16:51:17.812Z,19.53
2022-12-04T16:53:45.236Z,18.80
2022-12-04T16:56:12.535Z,19.10
2022-12-04T16:58:39.871Z,18.50
2022-12-04T17:01:19.768Z,17.90
2022-12-04T17:03:47.258Z,18.77
2022-12-04T17:06:14.947Z,18.33
2022-12-04T17:08:42.284Z,17.93
2022-12-04T17:11:13.080Z,18.97
2022-12-04T17:13:40.731Z,19.67
2022-12-04T17:16:08.612Z,19.27
2022-12-04T17:18:36.096Z,18.53
2022-12-04T17:21:12.053Z,19.73
2022-12-04T17:23:40.021Z,18.43
2022-12-04T17:26:13.479Z,19.70
2022-12-04T17:28:41.545Z,20.17
2022-12-04T17:31:14.965Z,18.80
2022-12-04T17:33:43.456Z,19.73
2022-12-04T17:36:16.436Z,19.37
2022-12-04T17:38:44.485Z,18.67
2022-12-04T17:41:14.054Z,18.63
2022-12-04T17:43:43.204Z,18.83
2022-12-04T17:46:13.641Z,18.20
2022-12-04T17:48:41.092Z,18.93
2022-12-04T17:51:10.033Z,19.30
2022-12-04T17:53:37.921Z,19.30
2022-12-04T17:56:07.795Z,20.37
2022-12-04T17:58:35.968Z,20.20
2022-12-04T18:01:06.021Z,20.30
2022-12-04T18:03:33.729Z,19.03
2022-12-04T18:06:01.590Z,20.00
2022-12-04T18:08:30.500Z,18.83
2022-12-04T18:10:57.993Z,20.00
2022-12-04T18:13:25.631Z,19.37
2022-12-04T18:15:52.929Z,20.40
2022-12-04T18:18:20.615Z,20.77
2022-12-04T18:20:48.126Z,22.67
2022-12-04T18:23:15.468Z,22.97
2022-12-04T18:25:42.792Z,21.37
2022-12-04T18:28:10.035Z,18.73
2022-12-04T18:30:37.536Z,18.83
2022-12-04T18:33:04.883Z,17.40
2022-12-04T18:35:32.290Z,19.17
2022-12-04T18:38:02.647Z,18.97
2022-12-04T18:40:30.054Z,18.20
2022-12-04T18:42:57.404Z,18.73
2022-12-04T18:45:25.663Z,19.00
2022-12-04T18:47:53.100Z,18.77
2022-12-04T18:50:20.360Z,18.90
2022-12-04T18:52:51.783Z,19.53
2022-12-04T18:55:24.196Z,18.63
2022-12-04T18:57:51.444Z,18.87
2022-12-04T19:00:19.178Z,19.80
2022-12-04T19:02:46.824Z,18.50
2022-12-04T19:05:14.282Z,18.73
2022-12-04T19:07:41.939Z,18.97
2022-12-04T19:10:11.491Z,18.67
2022-12-04T19:12:39.136Z,18.33
2022-12-04T19:15:07.287Z,17.83
2022-12-04T19:17:34.565Z,18.50
2022-12-04T19:20:01.790Z,18.37
2022-12-04T19:22:30.105Z,19.47
2022-12-04T19:25:06.911Z,19.10
2022-12-04T19:27:38.946Z,20.43
2022-12-04T19:30:08.499Z,19.77
2022-12-04T19:32:36.361Z,19.23
2022-12-04T19:35:03.922Z,18.40
2022-12-04T19:37:31.343Z,18.37
2022-12-04T19:39:59.027Z,17.90
2022-12-04T19:42:29.286Z,19.10
2022-12-04T19:44:56.781Z,18.77
2022-12-04T19:47:24.137Z,19.47
2022-12-04T19:49:54.430Z,17.73
2022-12-04T19:52:21.953Z,18.07
2022-12-04T19:54:49.590Z,18.87
2022-12-04T19:57:17.266Z,18.50
2022-12-04T19:59:46.500Z,18.80
2022-12-04T20:02:24.684Z,17.10
2022-12-04T20:04:51.962Z,19.53
2022-12-04T20:07:19.550Z,19.20
2022-12-04T20:09:51.964Z,18.23
2022-12-04T20:12:19.906Z,18.97
2022-12-04T20:14:47.197Z,18.87
2022-12-04T20:17:14.657Z,19.20
2022-12-04T20:19:42.008Z,18.83
2022-12-04T20:22:09.321Z,18.43
2022-12-04T20:24:36.623Z,20.37
2022-12-04T20:27:04.048Z,18.43
2022-12-04T20:29:31.335Z,20.43
2022-12-04T20:32:01.423Z,19.20
2022-12-04T20:34:28.807Z,19.50
2022-12-04T20:36:56.567Z,20.07
2022-12-04T20:39:23.767Z,18.10
2022-12-04T20:41:51.361Z,20.43
2022-12-04T20:44:20.187Z,20.30
2022-12-04T20:46:48.727Z,20.00
2022-12-04T20:49:21.955Z,19.33
2022-12-04T20:51:51.370Z,19.03
2022-12-04T20:54:21.356Z,19.70
2022-12-04T20:56:50.007Z,19.77
2022-12-04T20:59:18.870Z,19.93
2022-12-04T21:01:47.036Z,19.23
2022-12-04T21:04:17.560Z,18.67
2022-12-04T21:06:46.563Z,18.67
2022-12-04T21:09:16.904Z,19.10
2022-12-04T21:11:50.340Z,19.83
2022-12-04T21:14:43.044Z,19.37
2022-12-04T21:17:18.145Z,19.27
2022-12-04T21:19:47.166Z,20.23
2022-12-04T21:22:15.169Z,20.23
2022-12-04T21:24:43.014Z,19.50
2022-12-04T21:27:13.389Z,20.13
2022-12-04T21:29:43.502Z,20.17
2022-12-04T21:32:10.786Z,19.87
2022-12-04T21:34:38.008Z,19.87
2022-12-04T21:37:05.314Z,21.20
2022-12-04T21:39:33.072Z,19.50
2022-12-04T21:42:18.853Z,19.67
2022-12-04T21:44:46.669Z,21.60
2022-12-04T21:47:13.919Z,20.63
2022-12-04T21:49:41.164Z,19.13
2022-12-04T21:52:08.811Z,18.63
2022-12-04T21:54:36.067Z,19.13
2022-12-04T21:57:03.426Z,19.57
2022-12-04T21:59:30.695Z,19.43
2022-12-04T22:01:58.149Z,18.53
2022-12-04T22:04:25.783Z,19.77
2022-12-04T22:06:54.441Z,19.13
2022-12-04T22:09:21.948Z,18.83
2022-12-04T22:11:49.207Z,19.97
2022-12-04T22:14:19.090Z,18.87
2022-12-04T22:16:46.673Z,19.40
2022-12-04T22:19:14.049Z,19.40
2022-12-04T22:21:41.342Z,18.63
2022-12-04T22:24:10.318Z,18.33
2022-12-04T22:26:38.311Z,19.00
2022-12-04T22:29:27.253Z,18.90
2022-12-04T22:31:53.550Z,19.00
2022-12-04T22:34:20.917Z,18.67
2022-12-04T22:36:49.094Z,19.13
2022-12-04T22:39:16.384Z,18.87
2022-12-04T22:41:43.622Z,20.77
2022-12-04T22:44:10.826Z,18.70
2022-12-04T22:46:38.203Z,18.40
2022-12-04T22:49:05.706Z,19.47
2022-12-04T22:51:32.917Z,18.73
2022-12-04T22:54:00.173Z,17.80
2022-12-04T22:56:30.226Z,19.33
2022-12-04T22:58:58.785Z,19.10
2022-12-04T23:01:31.977Z,19.80
2022-12-04T23:04:00.267Z,19.77
2022-12-04T23:06:30.032Z,20.07
2022-12-04T23:09:04.250Z,19.37
2022-12-04T23:11:31.829Z,19.30
2022-12-04T23:14:01.640Z,19.03
2022-12-04T23:16:30.780Z,18.10
2022-12-04T23:18:58.135Z,20.40
2022-12-04T23:21:26.033Z,20.40
2022-12-04T23:23:54.448Z,19.77
2022-12-04T23:26:24.757Z,18.73
2022-12-04T23:28:52.482Z,18.90
2022-12-04T23:31:19.899Z,18.40
2022-12-04T23:33:47.211Z,19.47
2022-12-04T23:36:15.898Z,21.03
2022-12-04T23:38:44.010Z,19.40
2022-12-04T23:41:12.887Z,18.17
2022-12-04T23:43:41.256Z,20.67
2022-12-04T23:46:11.609Z,18.47
2022-12-04T23:48:40.197Z,18.20
2022-12-04T23:51:08.706Z,18.23
2022-12-04T23:53:36.372Z,20.20
2022-12-04T23:56:12.032Z,19.97
2022-12-04T23:58:40.387Z,19.27
